sensor_id;sensor_type;location;lat;lon;timestamp;P1;durP1;ratioP1;P2;durP2;ratioP2
20302;SDS011;10310;50.906;4.622;2022-09-12T10:17:49;3.30;;;3.00;;
20302;SDS011;10310;50.906;4.622;2022-09-12T10:20:28;3.57;;;3.27;;
20302;SDS011;10310;50.906;4.622;2022-09-12T10:22:57;3.43;;;2.90;;
20302;SDS011;10310;50.906;4.622;2022-09-12T10:57:30;3.73;;;3.17;;
20302;SDS011;10310;50.906;4.622;2022-09-12T11:00:08;3.00;;;2.70;;
20302;SDS011;10310;50.906;4.622;2022-09-12T11:02:47;5.37;;;3.37;;
20302;SDS011;10310;50.906;4.622;2022-09-12T11:05:20;4.67;;;3.43;;
20302;SDS011;10310;50.906;4.622;2022-09-12T11:08:03;3.50;;;3.00;;
20302;SDS011;10310;50.906;4.622;2022-09-12T11:10:40;2.70;;;2.50;;
20302;SDS011;10310;50.906;4.622;2022-09-12T11:13:16;3.70;;;3.03;;
20302;SDS011;10310;50.906;4.622;2022-09-12T11:15:54;4.43;;;2.90;;
20302;SDS011;10310;50.906;4.622;2022-09-12T11:18:35;3.30;;;2.77;;
20302;SDS011;10310;50.906;4.622;2022-09-12T11:21:21;2.90;;;2.60;;
20302;SDS011;10310;50.906;4.622;2022-09-12T11:24:13;2.40;;;2.20;;
20302;SDS011;10310;50.906;4.622;2022-09-12T11:26:59;2.80;;;2.60;;
20302;SDS011;10310;50.906;4.622;2022-09-12T11:29:46;2.63;;;2.40;;
20302;SDS011;10310;50.906;4.622;2022-09-12T11:35:18;4.97;;;2.60;;
20302;SDS011;10310;50.906;4.622;2022-09-12T11:37:58;7.10;;;3.60;;
20302;SDS011;10310;50.906;4.622;2022-09-12T11:40:45;3.20;;;2.43;;
20302;SDS011;10310;50.906;4.622;2022-09-12T11:43:22;2.47;;;2.07;;
20302;SDS011;10310;50.906;4.622;2022-09-12T11:46:00;5.20;;;2.20;;
20302;SDS011;10310;50.906;4.622;2022-09-12T11:48:37;2.50;;;2.30;;
20302;SDS011;10310;50.906;4.622;2022-09-12T11:51:14;3.87;;;2.20;;
20302;SDS011;10310;50.906;4.622;2022-09-12T11:53:44;5.77;;;2.43;;
20302;SDS011;10310;50.906;4.622;2022-09-12T11:56:24;4.47;;;2.40;;
20302;SDS011;10310;50.906;4.622;2022-09-12T11:58:52;5.03;;;2.60;;
20302;SDS011;10310;50.906;4.622;2022-09-12T12:01:26;2.40;;;2.20;;
20302;SDS011;10310;50.906;4.622;2022-09-12T12:03:57;3.73;;;2.20;;
20302;SDS011;10310;50.906;4.622;2022-09-12T12:06:31;4.73;;;2.60;;
20302;SDS011;10310;50.906;4.622;2022-09-12T12:09:12;2.73;;;2.23;;
20302;SDS011;10310;50.906;4.622;2022-09-12T12:11:40;2.57;;;2.10;;
20302;SDS011;10310;50.906;4.622;2022-09-12T12:14:12;2.77;;;2.27;;
20302;SDS011;10310;50.906;4.622;2022-09-12T12:16:44;2.50;;;2.30;;
20302;SDS011;10310;50.906;4.622;2022-09-12T12:19:22;2.63;;;2.37;;
20302;SDS011;10310;50.906;4.622;2022-09-12T12:22:02;4.17;;;2.30;;
20302;SDS011;10310;50.906;4.622;2022-09-12T12:24:32;3.33;;;2.20;;
20302;SDS011;10310;50.906;4.622;2022-09-12T12:26:59;2.43;;;2.10;;
20302;SDS011;10310;50.906;4.622;2022-09-12T12:29:38;3.87;;;2.20;;
20302;SDS011;10310;50.906;4.622;2022-09-12T12:32:21;3.37;;;2.50;;
20302;SDS011;10310;50.906;4.622;2022-09-12T12:38:04;2.57;;;2.30;;
20302;SDS011;10310;50.906;4.622;2022-09-12T12:40:52;2.90;;;2.50;;
20302;SDS011;10310;50.906;4.622;2022-09-12T12:43:28;2.70;;;2.40;;
20302;SDS011;10310;50.906;4.622;2022-09-12T12:46:07;2.63;;;2.27;;
20302;SDS011;10310;50.906;4.622;2022-09-12T12:54:29;4.10;;;2.70;;
20302;SDS011;10310;50.906;4.622;2022-09-12T12:57:15;3.60;;;2.53;;
20302;SDS011;10310;50.906;4.622;2022-09-12T12:59:45;2.30;;;2.10;;
20302;SDS011;10310;50.906;4.622;2022-09-12T13:02:17;3.60;;;2.37;;
20302;SDS011;10310;50.906;4.622;2022-09-12T13:04:48;3.87;;;2.10;;
20302;SDS011;10310;50.906;4.622;2022-09-12T13:07:21;3.53;;;2.17;;
20302;SDS011;10310;50.906;4.622;2022-09-12T13:10:02;2.73;;;2.10;;
20302;SDS011;10310;50.906;4.622;2022-09-12T13:12:31;2.07;;;1.97;;
20302;SDS011;10310;50.906;4.622;2022-09-12T13:15:00;2.73;;;2.13;;
20302;SDS011;10310;50.906;4.622;2022-09-12T13:17:31;4.23;;;2.07;;
20302;SDS011;10310;50.906;4.622;2022-09-12T13:20:03;2.67;;;2.10;;
20302;SDS011;10310;50.906;4.622;2022-09-12T13:22:41;3.53;;;2.30;;
20302;SDS011;10310;50.906;4.622;2022-09-12T13:28:03;1.93;;;1.83;;
20302;SDS011;10310;50.906;4.622;2022-09-12T13:30:32;5.43;;;2.33;;
20302;SDS011;10310;50.906;4.622;2022-09-12T13:33:08;2.17;;;2.00;;
20302;SDS011;10310;50.906;4.622;2022-09-12T13:35:57;3.00;;;2.30;;
20302;SDS011;10310;50.906;4.622;2022-09-12T13:38:39;3.07;;;1.97;;
20302;SDS011;10310;50.906;4.622;2022-09-12T13:41:20;2.47;;;1.73;;
20302;SDS011;10310;50.906;4.622;2022-09-12T13:44:01;2.87;;;2.10;;
20302;SDS011;10310;50.906;4.622;2022-09-12T13:46:29;1.97;;;1.87;;
20302;SDS011;10310;50.906;4.622;2022-09-12T13:48:58;4.33;;;1.90;;
20302;SDS011;10310;50.906;4.622;2022-09-12T13:51:28;2.00;;;1.90;;
20302;SDS011;10310;50.906;4.622;2022-09-12T13:53:58;2.33;;;1.83;;
20302;SDS011;10310;50.906;4.622;2022-09-12T13:56:28;2.50;;;1.90;;
20302;SDS011;10310;50.906;4.622;2022-09-12T13:58:56;2.43;;;2.00;;
20302;SDS011;10310;50.906;4.622;2022-09-12T14:01:35;2.20;;;2.00;;
20302;SDS011;10310;50.906;4.622;2022-09-12T14:04:07;3.73;;;2.07;;
20302;SDS011;10310;50.906;4.622;2022-09-12T14:06:58;4.23;;;1.90;;
20302;SDS011;10310;50.906;4.622;2022-09-12T14:09:29;3.37;;;1.77;;
20302;SDS011;10310;50.906;4.622;2022-09-12T14:12:00;2.60;;;1.90;;
20302;SDS011;10310;50.906;4.622;2022-09-12T14:14:30;2.87;;;1.90;;
20302;SDS011;10310;50.906;4.622;2022-09-12T14:17:00;1.93;;;1.80;;
20302;SDS011;10310;50.906;4.622;2022-09-12T14:19:27;2.80;;;1.80;;
20302;SDS011;10310;50.906;4.622;2022-09-12T14:21:54;2.40;;;1.50;;
20302;SDS011;10310;50.906;4.622;2022-09-12T14:24:22;2.87;;;1.50;;
20302;SDS011;10310;50.906;4.622;2022-09-12T14:26:52;3.10;;;1.90;;
20302;SDS011;10310;50.906;4.622;2022-09-12T14:29:20;2.40;;;2.00;;
20302;SDS011;10310;50.906;4.622;2022-09-12T14:31:58;3.10;;;1.83;;
20302;SDS011;10310;50.906;4.622;2022-09-12T14:34:27;2.10;;;1.90;;
20302;SDS011;10310;50.906;4.622;2022-09-12T14:36:54;2.83;;;1.80;;
20302;SDS011;10310;50.906;4.622;2022-09-12T14:39:23;2.63;;;1.70;;
20302;SDS011;10310;50.906;4.622;2022-09-12T14:42:03;2.10;;;1.90;;
20302;SDS011;10310;50.906;4.622;2022-09-12T14:44:33;3.60;;;1.83;;
20302;SDS011;10310;50.906;4.622;2022-09-12T14:47:09;3.57;;;2.00;;
20302;SDS011;10310;50.906;4.622;2022-09-12T14:49:39;4.07;;;1.75;;
20302;SDS011;10310;50.906;4.622;2022-09-12T14:52:07;1.92;;;1.73;;
20302;SDS011;10310;50.906;4.622;2022-09-12T14:54:55;2.08;;;1.88;;
20302;SDS011;10310;50.906;4.622;2022-09-12T14:57:30;2.42;;;1.95;;
20302;SDS011;10310;50.906;4.622;2022-09-12T15:00:14;2.38;;;1.65;;
20302;SDS011;10310;50.906;4.622;2022-09-12T15:02:47;2.38;;;1.50;;
20302;SDS011;10310;50.906;4.622;2022-09-12T15:05:16;2.50;;;1.73;;
20302;SDS011;10310;50.906;4.622;2022-09-12T15:07:50;3.40;;;1.58;;
20302;SDS011;10310;50.906;4.622;2022-09-12T15:10:20;2.58;;;1.63;;
20302;SDS011;10310;50.906;4.622;2022-09-12T15:13:01;3.50;;;1.60;;
20302;SDS011;10310;50.906;4.622;2022-09-12T15:15:40;1.80;;;1.60;;
20302;SDS011;10310;50.906;4.622;2022-09-12T15:18:08;2.65;;;1.63;;
20302;SDS011;10310;50.906;4.622;2022-09-12T15:20:36;1.92;;;1.52;;
20302;SDS011;10310;50.906;4.622;2022-09-12T15:23:04;1.70;;;1.60;;
20302;SDS011;10310;50.906;4.622;2022-09-12T15:25:37;3.10;;;1.85;;
20302;SDS011;10310;50.906;4.622;2022-09-12T15:28:07;4.03;;;2.00;;
20302;SDS011;10310;50.906;4.622;2022-09-12T15:30:41;1.73;;;1.63;;
20302;SDS011;10310;50.906;4.622;2022-09-12T15:33:08;1.80;;;1.70;;
20302;SDS011;10310;50.906;4.622;2022-09-12T15:35:36;1.73;;;1.60;;
20302;SDS011;10310;50.906;4.622;2022-09-12T15:38:03;3.40;;;1.80;;
20302;SDS011;10310;50.906;4.622;2022-09-12T15:40:30;4.35;;;2.10;;
20302;SDS011;10310;50.906;4.622;2022-09-12T15:42:57;1.70;;;1.60;;
20302;SDS011;10310;50.906;4.622;2022-09-12T15:45:26;2.90;;;1.60;;
20302;SDS011;10310;50.906;4.622;2022-09-12T15:47:55;1.88;;;1.70;;
20302;SDS011;10310;50.906;4.622;2022-09-12T15:50:22;2.80;;;1.42;;
20302;SDS011;10310;50.906;4.622;2022-09-12T15:52:49;2.17;;;1.70;;
20302;SDS011;10310;50.906;4.622;2022-09-12T15:55:17;2.03;;;1.73;;
20302;SDS011;10310;50.906;4.622;2022-09-12T15:57:45;3.17;;;1.83;;
20302;SDS011;10310;50.906;4.622;2022-09-12T16:00:13;2.10;;;2.00;;
20302;SDS011;10310;50.906;4.622;2022-09-12T16:02:43;3.40;;;2.22;;
20302;SDS011;10310;50.906;4.622;2022-09-12T16:05:13;2.78;;;1.83;;
20302;SDS011;10310;50.906;4.622;2022-09-12T16:07:42;2.00;;;1.80;;
20302;SDS011;10310;50.906;4.622;2022-09-12T16:10:12;2.28;;;1.40;;
20302;SDS011;10310;50.906;4.622;2022-09-12T16:12:41;2.65;;;1.50;;
20302;SDS011;10310;50.906;4.622;2022-09-12T16:15:10;2.60;;;1.50;;
20302;SDS011;10310;50.906;4.622;2022-09-12T16:17:38;1.92;;;1.80;;
20302;SDS011;10310;50.906;4.622;2022-09-12T16:20:07;1.97;;;1.70;;
20302;SDS011;10310;50.906;4.622;2022-09-12T16:22:35;1.60;;;1.50;;
20302;SDS011;10310;50.906;4.622;2022-09-12T16:25:02;3.50;;;1.80;;
20302;SDS011;10310;50.906;4.622;2022-09-12T16:27:30;1.77;;;1.60;;
20302;SDS011;10310;50.906;4.622;2022-09-12T16:29:57;2.77;;;1.90;;
20302;SDS011;10310;50.906;4.622;2022-09-12T16:32:24;3.20;;;1.57;;
20302;SDS011;10310;50.906;4.622;2022-09-12T16:34:51;2.40;;;1.67;;
20302;SDS011;10310;50.906;4.622;2022-09-12T16:37:19;2.33;;;2.07;;
20302;SDS011;10310;50.906;4.622;2022-09-12T16:39:46;2.37;;;2.03;;
20302;SDS011;10310;50.906;4.622;2022-09-12T16:42:14;1.73;;;1.63;;
20302;SDS011;10310;50.906;4.622;2022-09-12T16:44:42;2.07;;;1.70;;
20302;SDS011;10310;50.906;4.622;2022-09-12T16:47:09;2.37;;;1.63;;
20302;SDS011;10310;50.906;4.622;2022-09-12T16:49:35;2.93;;;1.70;;
20302;SDS011;10310;50.906;4.622;2022-09-12T16:52:02;3.93;;;1.50;;
20302;SDS011;10310;50.906;4.622;2022-09-12T16:54:31;2.47;;;1.70;;
20302;SDS011;10310;50.906;4.622;2022-09-12T16:56:58;2.63;;;1.70;;
20302;SDS011;10310;50.906;4.622;2022-09-12T16:59:25;3.33;;;1.60;;
20302;SDS011;10310;50.906;4.622;2022-09-12T17:01:52;3.50;;;1.70;;
20302;SDS011;10310;50.906;4.622;2022-09-12T17:04:19;2.43;;;1.40;;
20302;SDS011;10310;50.906;4.622;2022-09-12T17:06:46;1.70;;;1.40;;
20302;SDS011;10310;50.906;4.622;2022-09-12T17:09:13;2.10;;;1.70;;
20302;SDS011;10310;50.906;4.622;2022-09-12T17:11:44;1.63;;;1.50;;
20302;SDS011;10310;50.906;4.622;2022-09-12T17:14:13;2.57;;;1.63;;
20302;SDS011;10310;50.906;4.622;2022-09-12T17:16:41;4.03;;;1.60;;
20302;SDS011;10310;50.906;4.622;2022-09-12T17:19:10;4.00;;;1.50;;
20302;SDS011;10310;50.906;4.622;2022-09-12T17:21:40;3.70;;;1.60;;
20302;SDS011;10310;50.906;4.622;2022-09-12T17:24:07;2.27;;;1.57;;
20302;SDS011;10310;50.906;4.622;2022-09-12T17:26:34;4.13;;;1.80;;
20302;SDS011;10310;50.906;4.622;2022-09-12T17:29:02;1.90;;;1.67;;
20302;SDS011;10310;50.906;4.622;2022-09-12T17:31:29;4.03;;;1.80;;
20302;SDS011;10310;50.906;4.622;2022-09-12T17:33:57;5.00;;;2.13;;
20302;SDS011;10310;50.906;4.622;2022-09-12T17:36:24;3.13;;;1.93;;
20302;SDS011;10310;50.906;4.622;2022-09-12T17:38:53;5.37;;;2.37;;
20302;SDS011;10310;50.906;4.622;2022-09-12T17:41:20;5.07;;;2.20;;
20302;SDS011;10310;50.906;4.622;2022-09-12T17:43:49;2.67;;;1.70;;
20302;SDS011;10310;50.906;4.622;2022-09-12T17:46:20;2.50;;;1.90;;
20302;SDS011;10310;50.906;4.622;2022-09-12T17:48:49;2.83;;;2.00;;
20302;SDS011;10310;50.906;4.622;2022-09-12T17:51:17;3.03;;;2.10;;
20302;SDS011;10310;50.906;4.622;2022-09-12T17:53:45;4.40;;;2.00;;
20302;SDS011;10310;50.906;4.622;2022-09-12T17:56:11;3.70;;;2.23;;
20302;SDS011;10310;50.906;4.622;2022-09-12T17:58:39;2.40;;;2.20;;
20302;SDS011;10310;50.906;4.622;2022-09-12T18:01:08;3.50;;;2.10;;
20302;SDS011;10310;50.906;4.622;2022-09-12T18:03:56;5.03;;;2.30;;
20302;SDS011;10310;50.906;4.622;2022-09-12T18:06:25;3.00;;;2.20;;
20302;SDS011;10310;50.906;4.622;2022-09-12T18:08:52;4.23;;;2.20;;
20302;SDS011;10310;50.906;4.622;2022-09-12T18:11:19;3.50;;;2.30;;
20302;SDS011;10310;50.906;4.622;2022-09-12T18:13:46;4.83;;;2.10;;
20302;SDS011;10310;50.906;4.622;2022-09-12T18:16:16;3.77;;;2.23;;
20302;SDS011;10310;50.906;4.622;2022-09-12T18:18:43;2.83;;;1.87;;
20302;SDS011;10310;50.906;4.622;2022-09-12T18:21:12;3.97;;;2.40;;
20302;SDS011;10310;50.906;4.622;2022-09-12T18:23:39;3.63;;;2.20;;
20302;SDS011;10310;50.906;4.622;2022-09-12T18:26:06;5.97;;;2.63;;
20302;SDS011;10310;50.906;4.622;2022-09-12T18:28:34;5.10;;;2.63;;
20302;SDS011;10310;50.906;4.622;2022-09-12T18:31:03;2.67;;;2.30;;
20302;SDS011;10310;50.906;4.622;2022-09-12T18:33:34;5.10;;;2.20;;
20302;SDS011;10310;50.906;4.622;2022-09-12T18:36:02;3.73;;;2.80;;
20302;SDS011;10310;50.906;4.622;2022-09-12T18:38:31;7.33;;;3.80;;
20302;SDS011;10310;50.906;4.622;2022-09-12T18:41:01;8.43;;;6.03;;
20302;SDS011;10310;50.906;4.622;2022-09-12T18:43:28;4.00;;;3.20;;
20302;SDS011;10310;50.906;4.622;2022-09-12T18:45:55;10.07;;;8.13;;
20302;SDS011;10310;50.906;4.622;2022-09-12T18:48:26;18.60;;;13.70;;
20302;SDS011;10310;50.906;4.622;2022-09-12T18:50:59;12.30;;;9.50;;
20302;SDS011;10310;50.906;4.622;2022-09-12T18:53:27;16.00;;;11.03;;
20302;SDS011;10310;50.906;4.622;2022-09-12T18:55:59;16.00;;;13.23;;
20302;SDS011;10310;50.906;4.622;2022-09-12T18:58:27;15.17;;;13.13;;
20302;SDS011;10310;50.906;4.622;2022-09-12T19:00:54;20.40;;;16.10;;
20302;SDS011;10310;50.906;4.622;2022-09-12T19:03:22;15.53;;;12.10;;
20302;SDS011;10310;50.906;4.622;2022-09-12T19:05:49;15.80;;;13.00;;
20302;SDS011;10310;50.906;4.622;2022-09-12T19:08:17;19.03;;;16.47;;
20302;SDS011;10310;50.906;4.622;2022-09-12T19:10:44;19.27;;;16.47;;
20302;SDS011;10310;50.906;4.622;2022-09-12T19:13:21;16.43;;;12.70;;
20302;SDS011;10310;50.906;4.622;2022-09-12T19:15:48;19.70;;;15.77;;
20302;SDS011;10310;50.906;4.622;2022-09-12T19:18:15;15.50;;;12.47;;
20302;SDS011;10310;50.906;4.622;2022-09-12T19:20:42;13.23;;;9.13;;
20302;SDS011;10310;50.906;4.622;2022-09-12T19:23:09;5.93;;;4.60;;
20302;SDS011;10310;50.906;4.622;2022-09-12T19:25:36;8.30;;;6.67;;
20302;SDS011;10310;50.906;4.622;2022-09-12T19:28:03;13.23;;;10.40;;
20302;SDS011;10310;50.906;4.622;2022-09-12T19:30:33;12.97;;;10.50;;
20302;SDS011;10310;50.906;4.622;2022-09-12T19:33:00;12.33;;;10.97;;
20302;SDS011;10310;50.906;4.622;2022-09-12T19:35:27;14.20;;;10.20;;
20302;SDS011;10310;50.906;4.622;2022-09-12T19:37:55;13.37;;;9.80;;
20302;SDS011;10310;50.906;4.622;2022-09-12T19:40:22;13.03;;;8.87;;
20302;SDS011;10310;50.906;4.622;2022-09-12T19:42:49;9.13;;;8.20;;
20302;SDS011;10310;50.906;4.622;2022-09-12T19:45:16;10.80;;;7.97;;
20302;SDS011;10310;50.906;4.622;2022-09-12T19:47:44;12.63;;;6.83;;
20302;SDS011;10310;50.906;4.622;2022-09-12T19:50:11;8.07;;;6.20;;
20302;SDS011;10310;50.906;4.622;2022-09-12T19:52:38;10.53;;;5.83;;
20302;SDS011;10310;50.906;4.622;2022-09-12T19:55:06;6.13;;;5.23;;
20302;SDS011;10310;50.906;4.622;2022-09-12T19:57:34;9.03;;;6.10;;
20302;SDS011;10310;50.906;4.622;2022-09-12T20:00:01;8.30;;;5.37;;
20302;SDS011;10310;50.906;4.622;2022-09-12T20:02:29;7.10;;;5.93;;
20302;SDS011;10310;50.906;4.622;2022-09-12T20:04:57;5.70;;;5.10;;
20302;SDS011;10310;50.906;4.622;2022-09-12T20:07:24;7.37;;;5.63;;
20302;SDS011;10310;50.906;4.622;2022-09-12T20:09:51;9.50;;;5.63;;
20302;SDS011;10310;50.906;4.622;2022-09-12T20:12:19;6.73;;;4.90;;
20302;SDS011;10310;50.906;4.622;2022-09-12T20:14:46;5.43;;;4.93;;
20302;SDS011;10310;50.906;4.622;2022-09-12T20:17:14;5.20;;;4.37;;
20302;SDS011;10310;50.906;4.622;2022-09-12T20:19:45;4.87;;;4.00;;
20302;SDS011;10310;50.906;4.622;2022-09-12T20:22:21;8.03;;;4.67;;
20302;SDS011;10310;50.906;4.622;2022-09-12T20:24:51;6.50;;;4.40;;
20302;SDS011;10310;50.906;4.622;2022-09-12T20:27:19;6.97;;;4.00;;
20302;SDS011;10310;50.906;4.622;2022-09-12T20:29:47;4.73;;;3.97;;
20302;SDS011;10310;50.906;4.622;2022-09-12T20:32:27;4.53;;;3.13;;
20302;SDS011;10310;50.906;4.622;2022-09-12T20:34:55;4.47;;;3.03;;
20302;SDS011;10310;50.906;4.622;2022-09-12T20:37:24;3.80;;;3.40;;
20302;SDS011;10310;50.906;4.622;2022-09-12T20:39:53;5.80;;;3.10;;
20302;SDS011;10310;50.906;4.622;2022-09-12T20:42:21;3.80;;;3.20;;
20302;SDS011;10310;50.906;4.622;2022-09-12T20:44:48;3.20;;;2.90;;
20302;SDS011;10310;50.906;4.622;2022-09-12T20:47:18;3.60;;;2.73;;
20302;SDS011;10310;50.906;4.622;2022-09-12T20:49:47;4.03;;;2.87;;
20302;SDS011;10310;50.906;4.622;2022-09-12T20:52:16;4.57;;;2.90;;
20302;SDS011;10310;50.906;4.622;2022-09-12T20:54:45;5.10;;;2.63;;
20302;SDS011;10310;50.906;4.622;2022-09-12T20:57:12;5.90;;;2.90;;
20302;SDS011;10310;50.906;4.622;2022-09-12T20:59:39;4.97;;;3.13;;
20302;SDS011;10310;50.906;4.622;2022-09-12T21:02:12;2.90;;;2.30;;
20302;SDS011;10310;50.906;4.622;2022-09-12T21:04:41;3.33;;;2.73;;
20302;SDS011;10310;50.906;4.622;2022-09-12T21:07:09;3.57;;;2.40;;
20302;SDS011;10310;50.906;4.622;2022-09-12T21:09:37;3.57;;;2.60;;
20302;SDS011;10310;50.906;4.622;2022-09-12T21:12:08;4.07;;;2.63;;
20302;SDS011;10310;50.906;4.622;2022-09-12T21:14:34;4.20;;;2.67;;
20302;SDS011;10310;50.906;4.622;2022-09-12T21:17:01;4.37;;;2.60;;
20302;SDS011;10310;50.906;4.622;2022-09-12T21:19:29;5.20;;;2.90;;
20302;SDS011;10310;50.906;4.622;2022-09-12T21:22:01;4.60;;;2.80;;
20302;SDS011;10310;50.906;4.622;2022-09-12T21:24:29;2.70;;;2.50;;
20302;SDS011;10310;50.906;4.622;2022-09-12T21:27:00;4.83;;;2.87;;
20302;SDS011;10310;50.906;4.622;2022-09-12T21:29:34;3.27;;;2.50;;
20302;SDS011;10310;50.906;4.622;2022-09-12T21:32:02;2.83;;;2.50;;
20302;SDS011;10310;50.906;4.622;2022-09-12T21:34:30;3.13;;;2.87;;
20302;SDS011;10310;50.906;4.622;2022-09-12T21:36:56;4.83;;;2.40;;
20302;SDS011;10310;50.906;4.622;2022-09-12T21:39:23;2.87;;;2.57;;
20302;SDS011;10310;50.906;4.622;2022-09-12T21:41:50;6.07;;;2.73;;
20302;SDS011;10310;50.906;4.622;2022-09-12T21:44:17;4.80;;;2.90;;
20302;SDS011;10310;50.906;4.622;2022-09-12T21:46:45;2.80;;;2.60;;
20302;SDS011;10310;50.906;4.622;2022-09-12T21:49:12;3.43;;;2.80;;
20302;SDS011;10310;50.906;4.622;2022-09-12T21:51:39;4.00;;;2.70;;
20302;SDS011;10310;50.906;4.622;2022-09-12T21:54:06;6.77;;;2.63;;
20302;SDS011;10310;50.906;4.622;2022-09-12T21:56:33;2.80;;;2.60;;
20302;SDS011;10310;50.906;4.622;2022-09-12T21:59:00;4.80;;;2.70;;
20302;SDS011;10310;50.906;4.622;2022-09-12T22:01:27;5.67;;;2.77;;
20302;SDS011;10310;50.906;4.622;2022-09-12T22:03:55;3.53;;;2.70;;
20302;SDS011;10310;50.906;4.622;2022-09-12T22:06:22;4.73;;;2.63;;
20302;SDS011;10310;50.906;4.622;2022-09-12T22:08:49;4.73;;;2.90;;
20302;SDS011;10310;50.906;4.622;2022-09-12T22:11:16;4.00;;;2.63;;
20302;SDS011;10310;50.906;4.622;2022-09-12T22:13:44;4.83;;;2.67;;
20302;SDS011;10310;50.906;4.622;2022-09-12T22:16:11;3.00;;;2.70;;
20302;SDS011;10310;50.906;4.622;2022-09-12T22:18:38;4.33;;;3.00;;
20302;SDS011;10310;50.906;4.622;2022-09-12T22:21:07;3.73;;;3.23;;
20302;SDS011;10310;50.906;4.622;2022-09-12T22:23:37;4.43;;;3.13;;
20302;SDS011;10310;50.906;4.622;2022-09-12T22:26:22;3.83;;;3.37;;
20302;SDS011;10310;50.906;4.622;2022-09-12T22:28:51;3.57;;;3.10;;
20302;SDS011;10310;50.906;4.622;2022-09-12T22:31:18;5.40;;;3.50;;
20302;SDS011;10310;50.906;4.622;2022-09-12T22:33:45;5.90;;;3.83;;
20302;SDS011;10310;50.906;4.622;2022-09-12T22:36:16;4.00;;;3.13;;
20302;SDS011;10310;50.906;4.622;2022-09-12T22:38:43;3.60;;;3.30;;
20302;SDS011;10310;50.906;4.622;2022-09-12T22:41:10;3.43;;;3.10;;
20302;SDS011;10310;50.906;4.622;2022-09-12T22:43:37;8.63;;;3.33;;
20302;SDS011;10310;50.906;4.622;2022-09-12T22:46:04;4.93;;;3.67;;
20302;SDS011;10310;50.906;4.622;2022-09-12T22:48:32;3.70;;;3.33;;
20302;SDS011;10310;50.906;4.622;2022-09-12T22:50:59;4.40;;;3.80;;
20302;SDS011;10310;50.906;4.622;2022-09-12T22:53:27;3.83;;;3.47;;
20302;SDS011;10310;50.906;4.622;2022-09-12T22:55:54;4.70;;;3.10;;
20302;SDS011;10310;50.906;4.622;2022-09-12T22:58:21;6.17;;;3.23;;
20302;SDS011;10310;50.906;4.622;2022-09-12T23:00:48;3.70;;;3.27;;
20302;SDS011;10310;50.906;4.622;2022-09-12T23:03:16;3.30;;;3.00;;
20302;SDS011;10310;50.906;4.622;2022-09-12T23:05:43;4.53;;;3.07;;
20302;SDS011;10310;50.906;4.622;2022-09-12T23:08:11;4.50;;;3.03;;
20302;SDS011;10310;50.906;4.622;2022-09-12T23:10:39;3.73;;;2.97;;
20302;SDS011;10310;50.906;4.622;2022-09-12T23:13:08;3.53;;;3.17;;
20302;SDS011;10310;50.906;4.622;2022-09-12T23:15:35;3.20;;;2.90;;
20302;SDS011;10310;50.906;4.622;2022-09-12T23:18:02;3.77;;;3.20;;
20302;SDS011;10310;50.906;4.622;2022-09-12T23:20:29;3.27;;;2.97;;
20302;SDS011;10310;50.906;4.622;2022-09-12T23:22:56;4.93;;;3.27;;
20302;SDS011;10310;50.906;4.622;2022-09-12T23:25:23;3.10;;;2.90;;
20302;SDS011;10310;50.906;4.622;2022-09-12T23:27:51;4.27;;;3.00;;
20302;SDS011;10310;50.906;4.622;2022-09-12T23:30:18;3.70;;;3.40;;
20302;SDS011;10310;50.906;4.622;2022-09-12T23:32:46;3.40;;;3.10;;
20302;SDS011;10310;50.906;4.622;2022-09-12T23:35:14;5.10;;;3.17;;
20302;SDS011;10310;50.906;4.622;2022-09-12T23:37:43;6.73;;;3.53;;
20302;SDS011;10310;50.906;4.622;2022-09-12T23:40:10;4.97;;;3.20;;
20302;SDS011;10310;50.906;4.622;2022-09-12T23:42:37;3.80;;;3.00;;
20302;SDS011;10310;50.906;4.622;2022-09-12T23:45:06;3.43;;;3.13;;
20302;SDS011;10310;50.906;4.622;2022-09-12T23:47:34;3.97;;;2.83;;
20302;SDS011;10310;50.906;4.622;2022-09-12T23:50:01;3.73;;;2.97;;
20302;SDS011;10310;50.906;4.622;2022-09-12T23:52:28;3.50;;;3.20;;
20302;SDS011;10310;50.906;4.622;2022-09-12T23:54:55;3.43;;;3.13;;
20302;SDS011;10310;50.906;4.622;2022-09-12T23:57:22;5.37;;;3.10;;
20302;SDS011;10310;50.906;4.622;2022-09-12T23:59:48;4.47;;;3.53;;
